Time;durP1;ratioP1;P1;durP2;ratioP2;P2;SDS_P1;SDS_P2;PMS_P1;PMS_P2;Temp;Humidity;BMP_temperature;BMP_pressure;BME280_temperature;BME280_humidity;BME280_pressure;Samples;Min_cycle;Max_cycle;Signal;HPM_P1;HPM_P2
2021/11/04 00:00:37;;;;;;;20.20;14.27;;;4.70;99.90;;;;;;5029498;28;20225;-85
2021/11/04 00:03:04;;;;;;;23.47;16.67;;;4.70;99.90;;;;;;5031264;28;20222;-84
2021/11/04 00:05:32;;;;;;;22.20;16.60;;;4.70;99.90;;;;;;5048499;28;20214;-85
2021/11/04 00:08:03;;;;;;;18.77;14.63;;;4.70;99.90;;;;;;5053225;28;20625;-85
2021/11/04 00:10:30;;;;;;;19.40;15.07;;;4.60;99.90;;;;;;5040871;28;20215;-83
2021/11/04 00:12:59;;;;;;;18.67;14.10;;;4.70;99.90;;;;;;5033918;28;20213;-86
2021/11/04 00:15:26;;;;;;;19.37;13.97;;;4.60;99.90;;;;;;5033711;28;20225;-89
2021/11/04 00:17:53;;;;;;;18.13;13.40;;;4.60;99.90;;;;;;5033586;28;20202;-86
2021/11/04 00:20:20;;;;;;;16.80;13.20;;;4.60;99.90;;;;;;5033306;28;20557;-88
2021/11/04 00:22:48;;;;;;;16.47;12.77;;;4.60;99.90;;;;;;5032807;28;20226;-83
2021/11/04 00:25:17;;;;;;;16.37;13.17;;;4.60;99.90;;;;;;5043356;28;20507;-85
2021/11/04 00:27:45;;;;;;;17.80;13.57;;;4.50;99.90;;;;;;5063555;28;20250;-84
2021/11/04 00:30:14;;;;;;;18.43;13.03;;;4.50;99.90;;;;;;5053400;28;20209;-84
2021/11/04 00:32:45;;;;;;;14.70;11.40;;;4.50;99.90;;;;;;5052596;28;20845;-84
2021/11/04 00:35:12;;;;;;;13.77;11.30;;;4.50;99.90;;;;;;5043182;28;20238;-84
2021/11/04 00:37:39;;;;;;;13.17;11.27;;;4.50;99.90;;;;;;5033328;28;20267;-86
2021/11/04 00:40:07;;;;;;;14.03;10.37;;;4.40;99.90;;;;;;5032912;28;20207;-88
2021/11/04 00:42:34;;;;;;;15.50;11.13;;;4.40;99.90;;;;;;5049801;28;20515;-87
2021/11/04 00:45:01;;;;;;;15.30;11.97;;;4.40;99.90;;;;;;5052650;28;20201;-87
2021/11/04 00:47:29;;;;;;;14.57;11.57;;;4.40;99.90;;;;;;5053494;28;20213;-85
2021/11/04 00:49:56;;;;;;;15.17;11.70;;;4.40;99.90;;;;;;5049008;28;20638;-85
2021/11/04 00:52:23;;;;;;;14.33;11.80;;;4.40;99.90;;;;;;5032394;28;20217;-85
2021/11/04 00:54:50;;;;;;;15.67;11.97;;;4.40;99.90;;;;;;5034029;28;20207;-89
2021/11/04 00:57:17;;;;;;;13.10;10.47;;;4.30;99.90;;;;;;5032798;28;20203;-88
2021/11/04 00:59:44;;;;;;;12.57;10.53;;;4.30;99.90;;;;;;5033465;28;20214;-88
2021/11/04 01:02:11;;;;;;;12.73;9.87;;;4.40;99.90;;;;;;5033194;28;20206;-84
2021/11/04 01:04:39;;;;;;;12.40;10.53;;;4.30;99.90;;;;;;5032781;28;20207;-85
2021/11/04 01:07:06;;;;;;;11.60;9.67;;;4.30;99.90;;;;;;5032671;28;20210;-87
2021/11/04 01:09:33;;;;;;;12.33;9.73;;;4.30;99.90;;;;;;5030185;28;20207;-89
2021/11/04 01:12:00;;;;;;;12.33;9.50;;;4.30;99.90;;;;;;5039559;28;20217;-84
2021/11/04 01:14:26;;;;;;;11.30;9.73;;;4.20;99.90;;;;;;5051319;28;20190;-84
2021/11/04 01:16:53;;;;;;;11.73;10.20;;;4.30;99.90;;;;;;5051043;28;20206;-82
2021/11/04 01:19:20;;;;;;;12.03;9.97;;;4.20;99.90;;;;;;5051157;28;20248;-83
2021/11/04 01:21:48;;;;;;;12.00;9.73;;;4.30;99.90;;;;;;5052151;28;20205;-85
2021/11/04 01:24:15;;;;;;;12.73;10.07;;;4.30;99.90;;;;;;5051659;28;20206;-84
2021/11/04 01:26:42;;;;;;;12.70;10.00;;;4.30;99.90;;;;;;5031826;28;20266;-86
2021/11/04 01:29:09;;;;;;;14.30;10.27;;;4.30;99.90;;;;;;5031727;28;20219;-86
2021/11/04 01:31:35;;;;;;;11.67;9.57;;;4.30;99.90;;;;;;5031691;28;20287;-88
2021/11/04 01:34:02;;;;;;;12.97;9.90;;;4.30;99.90;;;;;;5031621;28;20219;-84
2021/11/04 01:36:29;;;;;;;12.13;9.90;;;4.20;99.90;;;;;;5031893;28;20780;-84
2021/11/04 01:38:57;;;;;;;11.60;9.93;;;4.20;99.90;;;;;;5031244;28;20203;-84
2021/11/04 01:41:24;;;;;;;14.20;10.63;;;4.20;99.90;;;;;;5031271;28;20226;-82
2021/11/04 01:43:51;;;;;;;15.33;10.60;;;4.20;99.90;;;;;;5030502;28;20191;-87
2021/11/04 01:46:21;;;;;;;13.17;9.50;;;4.20;99.90;;;;;;5031174;28;20409;-84
2021/11/04 01:48:48;;;;;;;12.80;10.20;;;4.10;99.90;;;;;;5031356;28;20246;-87
2021/11/04 01:51:15;;;;;;;10.93;9.20;;;4.10;99.90;;;;;;5030174;28;20214;-87
2021/11/04 01:53:42;;;;;;;14.00;11.57;;;4.10;99.90;;;;;;5031535;28;20204;-87
2021/11/04 01:56:10;;;;;;;12.50;10.03;;;4.10;99.90;;;;;;5047504;28;20220;-88
2021/11/04 01:58:37;;;;;;;12.10;9.93;;;4.10;99.90;;;;;;5051897;28;20206;-89
2021/11/04 02:01:04;;;;;;;15.13;11.60;;;4.10;99.90;;;;;;5052150;28;20205;-85
2021/11/04 02:03:36;;;;;;;12.83;10.50;;;4.10;99.90;;;;;;5038436;28;20213;-86
2021/11/04 02:06:11;;;;;;;13.00;10.80;;;4.00;99.90;;;;;;5050246;28;20205;-84
2021/11/04 02:08:44;;;;;;;12.30;10.03;;;4.00;99.90;;;;;;5051361;28;20732;-84
2021/11/04 02:11:16;;;;;;;12.37;10.10;;;4.00;99.90;;;;;;5051967;28;20213;-88
2021/11/04 02:13:53;;;;;;;13.23;10.63;;;4.00;99.90;;;;;;5050664;28;20598;-83
2021/11/04 02:16:20;;;;;;;15.40;11.97;;;4.00;99.90;;;;;;5050632;28;20198;-85
2021/11/04 02:18:49;;;;;;;14.30;10.63;;;4.00;99.90;;;;;;5051960;28;20190;-87
2021/11/04 02:21:27;;;;;;;13.70;11.67;;;4.00;99.90;;;;;;5031625;28;20206;-89
2021/11/04 02:24:05;;;;;;;14.33;11.67;;;4.00;99.90;;;;;;5031726;28;20233;-86
2021/11/04 02:26:35;;;;;;;13.73;10.50;;;4.00;99.90;;;;;;5068082;28;20317;-89
2021/11/04 02:29:03;;;;;;;14.83;11.73;;;4.00;99.90;;;;;;5071687;28;20213;-89
2021/11/04 02:31:30;;;;;;;13.60;11.07;;;4.00;99.90;;;;;;5063310;28;20205;-88
2021/11/04 02:33:58;;;;;;;14.40;11.27;;;4.00;99.90;;;;;;5030486;28;20743;-89
2021/11/04 02:36:25;;;;;;;12.47;10.37;;;4.00;99.90;;;;;;5037228;28;20202;-90
2021/11/04 02:38:53;;;;;;;14.43;11.20;;;4.00;99.90;;;;;;5051477;28;20201;-90
2021/11/04 02:41:21;;;;;;;14.37;10.30;;;3.90;99.90;;;;;;5048650;28;20880;-89
2021/11/04 02:43:50;;;;;;;11.50;10.07;;;3.90;99.90;;;;;;5048087;28;20577;-83
2021/11/04 02:46:17;;;;;;;13.00;9.93;;;3.90;99.90;;;;;;5030756;28;20221;-82
2021/11/04 02:48:44;;;;;;;14.27;11.47;;;3.90;99.90;;;;;;5030631;28;20234;-83
2021/11/04 02:51:11;;;;;;;12.77;10.87;;;3.90;99.90;;;;;;5030603;28;20547;-84
2021/11/04 02:53:38;;;;;;;13.60;10.77;;;3.90;99.90;;;;;;5029136;28;20202;-82
2021/11/04 02:56:05;;;;;;;12.93;11.13;;;3.90;99.90;;;;;;5029242;28;20209;-83
2021/11/04 02:58:32;;;;;;;12.33;10.67;;;3.90;99.90;;;;;;5006534;23;20671;-83
2021/11/04 03:01:03;;;;;;;13.77;11.10;;;3.90;99.90;;;;;;5009009;28;20199;-83
2021/11/04 03:03:30;;;;;;;13.47;10.47;;;3.90;99.90;;;;;;5007756;28;20269;-83
2021/11/04 03:05:57;;;;;;;12.93;10.30;;;3.90;99.90;;;;;;5009150;28;20207;-89
2021/11/04 03:08:25;;;;;;;12.10;10.57;;;3.90;99.90;;;;;;5009466;28;20468;-90
2021/11/04 03:10:51;;;;;;;14.57;11.40;;;3.90;99.90;;;;;;5009178;28;20569;-89
2021/11/04 03:13:18;;;;;;;16.87;12.90;;;4.00;99.90;;;;;;5009144;28;20215;-85
2021/11/04 03:15:50;;;;;;;14.83;11.30;;;4.00;99.90;;;;;;5010953;28;20213;-84
2021/11/04 03:18:19;;;;;;;18.77;13.33;;;4.10;99.90;;;;;;5009379;28;20262;-83
2021/11/04 03:20:47;;;;;;;15.27;12.90;;;4.10;99.90;;;;;;5010062;28;20203;-85
2021/11/04 03:23:14;;;;;;;15.47;12.53;;;4.10;99.90;;;;;;5023091;28;20212;-84
2021/11/04 03:25:43;;;;;;;17.13;13.67;;;4.20;99.90;;;;;;5041896;28;20201;-85
2021/11/04 03:28:11;;;;;;;16.07;12.87;;;4.20;99.90;;;;;;5031898;28;20237;-84
2021/11/04 03:30:40;;;;;;;15.63;11.47;;;4.20;99.90;;;;;;5030177;28;20210;-86
2021/11/04 03:33:09;;;;;;;16.40;12.30;;;4.20;99.90;;;;;;5030990;28;20203;-87
2021/11/04 03:35:38;;;;;;;17.63;13.10;;;4.20;99.90;;;;;;5014813;28;20511;-86
2021/11/04 03:38:08;;;;;;;16.60;12.97;;;4.20;99.90;;;;;;5010992;28;20203;-87
2021/11/04 03:40:36;;;;;;;17.27;12.67;;;4.20;99.90;;;;;;5014042;28;20214;-88
2021/11/04 03:43:05;;;;;;;15.10;12.43;;;4.20;99.90;;;;;;5016873;28;20211;-87
2021/11/04 03:45:32;;;;;;;14.87;12.63;;;4.30;99.90;;;;;;5018457;28;20203;-88
2021/11/04 03:47:59;;;;;;;13.43;11.83;;;4.30;99.90;;;;;;5014312;28;20645;-88
2021/11/04 03:50:27;;;;;;;13.40;10.80;;;4.30;99.90;;;;;;5025315;28;20852;-85
2021/11/04 03:52:56;;;;;;;16.27;12.07;;;4.20;99.90;;;;;;5035122;28;20221;-85
2021/11/04 03:55:25;;;;;;;13.50;10.80;;;4.30;99.90;;;;;;5033985;28;20214;-82
2021/11/04 03:57:53;;;;;;;14.40;11.23;;;4.30;99.90;;;;;;5034268;28;20241;-87
2021/11/04 04:00:20;;;;;;;14.67;11.57;;;4.30;99.90;;;;;;5034155;28;20202;-88
2021/11/04 04:02:49;;;;;;;13.27;10.90;;;4.30;99.90;;;;;;5034086;28;20202;-85
2021/11/04 04:05:16;;;;;;;13.67;10.83;;;4.30;99.90;;;;;;5034501;28;20665;-89
2021/11/04 04:07:44;;;;;;;15.93;12.07;;;4.30;99.90;;;;;;5034342;28;20194;-88
2021/11/04 04:10:12;;;;;;;18.17;12.90;;;4.30;99.90;;;;;;5038318;28;20229;-86
2021/11/04 04:12:39;;;;;;;18.57;14.33;;;4.30;99.90;;;;;;5053957;28;20202;-87
2021/11/04 04:15:06;;;;;;;14.63;10.90;;;4.40;99.90;;;;;;5050700;28;20206;-87
2021/11/04 04:17:33;;;;;;;13.77;9.53;;;4.50;99.90;;;;;;5035489;28;20218;-83
2021/11/04 04:20:00;;;;;;;14.70;9.27;;;4.60;99.90;;;;;;5034527;28;20197;-83
2021/11/04 04:22:27;;;;;;;9.80;7.70;;;4.80;99.90;;;;;;5051220;28;20224;-81
2021/11/04 04:24:54;;;;;;;7.37;6.17;;;4.90;99.90;;;;;;5056784;28;20213;-81
2021/11/04 04:27:22;;;;;;;7.93;7.13;;;5.00;99.90;;;;;;5036829;28;20203;-84
2021/11/04 04:29:49;;;;;;;7.50;5.90;;;5.10;99.90;;;;;;5031573;28;20866;-82
2021/11/04 04:32:16;;;;;;;6.50;5.60;;;5.10;99.90;;;;;;5030895;28;20211;-83
2021/11/04 04:34:43;;;;;;;8.27;5.93;;;5.20;99.90;;;;;;5032141;28;20297;-85
2021/11/04 04:37:09;;;;;;;9.30;5.97;;;5.20;99.90;;;;;;5034664;28;20207;-82
2021/11/04 04:39:37;;;;;;;9.10;6.30;;;5.20;99.90;;;;;;5033987;28;20539;-86
2021/11/04 04:42:05;;;;;;;7.97;5.87;;;5.30;99.90;;;;;;5034463;28;20210;-81
2021/11/04 04:44:34;;;;;;;7.10;6.13;;;5.30;99.90;;;;;;5032481;28;20234;-81
2021/11/04 04:47:01;;;;;;;9.10;6.47;;;5.30;99.90;;;;;;5031256;28;20202;-84
2021/11/04 04:49:28;;;;;;;8.87;5.83;;;5.30;99.90;;;;;;5029933;28;20222;-83
2021/11/04 04:51:54;;;;;;;7.03;6.00;;;5.30;99.90;;;;;;5031783;28;20287;-82
2021/11/04 04:54:21;;;;;;;8.20;5.43;;;5.30;99.90;;;;;;5030935;28;20624;-82
2021/11/04 04:56:48;;;;;;;5.37;4.73;;;5.40;99.90;;;;;;5031297;28;20249;-84
2021/11/04 04:59:15;;;;;;;6.70;4.93;;;5.40;99.90;;;;;;5031733;28;20190;-85
2021/11/04 05:01:43;;;;;;;6.43;4.70;;;5.50;99.90;;;;;;5031546;28;20307;-84
2021/11/04 05:04:10;;;;;;;6.73;3.33;;;5.60;99.90;;;;;;5031235;28;20621;-87
2021/11/04 05:06:37;;;;;;;4.17;1.50;;;5.70;99.90;;;;;;5051760;28;20625;-84
2021/11/04 05:09:04;;;;;;;3.23;1.03;;;6.00;99.90;;;;;;5051117;28;20229;-86
2021/11/04 05:11:31;;;;;;;3.27;0.87;;;6.30;99.90;;;;;;5032704;28;20206;-82
2021/11/04 05:13:58;;;;;;;5.07;1.00;;;6.50;99.90;;;;;;5031608;28;20203;-85
2021/11/04 05:16:25;;;;;;;6.70;0.93;;;6.80;99.90;;;;;;5031099;28;20568;-85
2021/11/04 05:18:53;;;;;;;11.00;1.70;;;7.10;99.90;;;;;;5032074;28;20202;-86
2021/11/04 05:21:20;;;;;;;5.23;0.90;;;7.30;99.90;;;;;;5032170;28;20218;-83
2021/11/04 05:23:47;;;;;;;8.63;1.37;;;7.50;99.90;;;;;;5031313;28;20872;-83
2021/11/04 05:26:14;;;;;;;5.73;0.77;;;7.60;99.90;;;;;;5030410;28;20877;-85
2021/11/04 05:28:41;;;;;;;5.37;0.90;;;7.70;99.90;;;;;;5030393;28;20233;-87
2021/11/04 05:31:07;;;;;;;5.73;1.40;;;7.70;99.90;;;;;;5029430;28;20217;-84
2021/11/04 05:33:34;;;;;;;3.93;1.00;;;7.80;99.90;;;;;;5030182;28;20206;-84
2021/11/04 05:36:03;;;;;;;4.93;0.87;;;7.80;99.90;;;;;;5030088;28;20195;-86
2021/11/04 05:38:29;;;;;;;6.03;0.83;;;7.80;99.90;;;;;;5040837;28;20605;-84
2021/11/04 05:40:56;;;;;;;7.20;0.87;;;7.80;99.90;;;;;;5050598;28;20217;-84
2021/11/04 05:43:23;;;;;;;2.83;0.90;;;7.80;99.90;;;;;;5032895;28;20210;-81
2021/11/04 05:45:50;;;;;;;4.00;0.90;;;7.80;99.90;;;;;;5028736;28;20224;-89
2021/11/04 05:48:16;;;;;;;3.70;0.70;;;7.80;99.90;;;;;;5028985;28;20214;-83
2021/11/04 05:50:43;;;;;;;7.40;0.93;;;7.70;99.90;;;;;;5028886;28;20235;-82
2021/11/04 05:53:12;;;;;;;2.27;0.97;;;7.70;99.90;;;;;;5029088;28;20209;-81
2021/11/04 05:55:38;;;;;;;6.37;0.70;;;7.70;99.90;;;;;;5028773;28;20207;-83
2021/11/04 05:58:05;;;;;;;2.27;0.60;;;7.70;99.90;;;;;;5028536;28;20269;-80
2021/11/04 06:00:32;;;;;;;4.83;1.07;;;7.70;99.90;;;;;;5027556;28;20202;-87
2021/11/04 06:02:59;;;;;;;2.30;0.63;;;7.70;99.90;;;;;;5049197;28;20884;-85
2021/11/04 06:05:26;;;;;;;3.40;0.60;;;7.70;99.90;;;;;;5048718;28;20637;-84
2021/11/04 06:07:53;;;;;;;4.50;0.60;;;7.70;99.90;;;;;;5049054;28;20529;-84
2021/11/04 06:10:21;;;;;;;3.50;0.80;;;7.70;99.90;;;;;;5044030;28;20865;-84
2021/11/04 06:12:48;;;;;;;3.27;0.70;;;7.70;99.90;;;;;;5028823;28;20206;-83
2021/11/04 06:15:15;;;;;;;2.00;0.50;;;7.70;99.90;;;;;;5028999;28;20219;-83
2021/11/04 06:17:42;;;;;;;0.83;0.50;;;7.70;99.90;;;;;;5029378;28;20198;-82
2021/11/04 06:20:10;;;;;;;2.47;0.60;;;7.70;99.90;;;;;;5030022;28;20784;-84
2021/11/04 06:22:37;;;;;;;1.20;0.40;;;7.70;99.90;;;;;;5028596;28;20205;-84
2021/11/04 06:25:04;;;;;;;1.30;0.70;;;7.70;99.90;;;;;;5047598;28;20224;-83
2021/11/04 06:27:33;;;;;;;4.70;0.67;;;7.70;99.90;;;;;;5068112;28;20235;-83
2021/11/04 06:30:02;;;;;;;1.00;0.50;;;7.80;99.90;;;;;;5048744;28;20633;-84
2021/11/04 06:32:29;;;;;;;3.13;0.80;;;7.80;99.90;;;;;;5038531;28;20214;-86
2021/11/04 06:34:56;;;;;;;2.13;0.60;;;7.80;99.90;;;;;;5029307;28;20506;-81
2021/11/04 06:37:23;;;;;;;1.00;0.53;;;7.80;99.90;;;;;;5043238;28;20648;-81
2021/11/04 06:39:50;;;;;;;3.53;0.90;;;7.80;99.90;;;;;;5049767;28;20197;-83
2021/11/04 06:42:16;;;;;;;3.13;0.70;;;7.80;99.90;;;;;;5049009;28;20191;-83
2021/11/04 06:44:45;;;;;;;2.27;0.70;;;7.90;99.90;;;;;;5047745;28;20225;-82
2021/11/04 06:47:24;;;;;;;2.80;0.73;;;7.90;99.90;;;;;;5048179;28;20273;-83
2021/11/04 06:49:52;;;;;;;3.70;0.80;;;8.00;99.90;;;;;;5048833;28;20268;-84
2021/11/04 06:52:24;;;;;;;3.73;0.90;;;8.00;99.90;;;;;;5048870;28;20871;-84
2021/11/04 06:54:52;;;;;;;3.37;0.80;;;8.00;99.90;;;;;;5033588;28;20214;-82
2021/11/04 06:57:20;;;;;;;3.87;1.37;;;8.10;99.90;;;;;;5028084;28;20245;-83
2021/11/04 06:59:50;;;;;;;1.37;0.97;;;8.10;99.90;;;;;;5029712;28;20219;-81
2021/11/04 07:02:29;;;;;;;4.27;1.10;;;8.00;99.90;;;;;;5028720;28;20285;-83
2021/11/04 07:04:58;;;;;;;2.10;0.93;;;8.10;99.90;;;;;;5029556;28;20218;-82
2021/11/04 07:07:25;;;;;;;9.27;2.27;;;8.10;99.90;;;;;;5029102;28;20521;-84
2021/11/04 07:09:53;;;;;;;3.13;0.87;;;8.10;99.90;;;;;;5029186;28;20234;-86
2021/11/04 07:12:19;;;;;;;0.60;0.60;;;8.10;99.90;;;;;;5030784;28;20510;-85
2021/11/04 07:14:47;;;;;;;3.30;1.17;;;8.10;99.90;;;;;;5033055;28;20198;-83
2021/11/04 07:17:16;;;;;;;3.13;1.20;;;8.20;99.90;;;;;;5032257;28;20201;-83
2021/11/04 07:19:47;;;;;;;4.80;1.40;;;8.20;99.90;;;;;;5030760;28;20263;-83
2021/11/04 07:22:22;;;;;;;4.17;1.30;;;8.30;99.90;;;;;;5031913;28;20230;-81
2021/11/04 07:25:01;;;;;;;7.43;1.40;;;8.30;99.90;;;;;;5041570;28;20197;-83
2021/11/04 07:27:34;;;;;;;3.23;0.97;;;8.40;99.90;;;;;;5071976;28;20212;-84
2021/11/04 07:30:06;;;;;;;4.20;1.20;;;8.40;99.90;;;;;;5052847;28;20226;-83
2021/11/04 07:32:34;;;;;;;5.53;2.80;;;8.40;99.90;;;;;;5045632;28;20221;-86
2021/11/04 07:35:02;;;;;;;5.27;3.63;;;8.50;99.90;;;;;;5032748;28;20222;-83
2021/11/04 07:37:32;;;;;;;6.53;2.80;;;8.50;99.90;;;;;;5032176;28;20199;-82
2021/11/04 07:39:59;;;;;;;7.03;2.60;;;8.60;99.90;;;;;;5033682;28;20214;-82
2021/11/04 07:42:26;;;;;;;4.63;1.90;;;8.70;99.90;;;;;;5032305;28;20206;-85
2021/11/04 07:44:53;;;;;;;1.60;1.20;;;8.80;99.90;;;;;;5031469;28;20202;-85
2021/11/04 07:47:19;;;;;;;2.33;0.80;;;8.80;99.90;;;;;;5033696;28;20816;-86
2021/11/04 07:49:48;;;;;;;4.37;1.13;;;8.90;99.90;;;;;;5034754;28;20234;-85
2021/11/04 07:52:14;;;;;;;4.20;1.67;;;9.00;99.90;;;;;;5033789;28;20210;-87
2021/11/04 07:54:41;;;;;;;4.90;1.10;;;9.10;99.90;;;;;;5033718;28;20203;-85
2021/11/04 07:57:10;;;;;;;2.03;1.07;;;9.20;99.90;;;;;;5053181;28;20235;-85
2021/11/04 07:59:36;;;;;;;3.27;1.10;;;9.30;99.90;;;;;;5049577;28;20604;-87
2021/11/04 08:02:04;;;;;;;4.63;1.30;;;9.40;99.90;;;;;;5033187;28;20586;-86
2021/11/04 08:04:31;;;;;;;4.87;1.33;;;9.40;99.90;;;;;;5033658;28;20206;-82
2021/11/04 08:07:00;;;;;;;4.70;1.70;;;9.50;99.90;;;;;;5033135;28;20194;-82
2021/11/04 08:09:28;;;;;;;4.67;1.40;;;9.60;99.90;;;;;;5033121;28;20226;-86
2021/11/04 08:11:55;;;;;;;4.80;1.57;;;9.60;99.90;;;;;;5053217;28;20225;-84
2021/11/04 08:14:24;;;;;;;6.53;1.97;;;9.70;99.90;;;;;;5052799;28;20213;-83
2021/11/04 08:16:51;;;;;;;5.50;1.93;;;9.80;99.90;;;;;;5053321;28;20214;-87
2021/11/04 08:19:19;;;;;;;5.93;1.40;;;9.90;99.90;;;;;;5050179;28;20218;-88
2021/11/04 08:21:46;;;;;;;6.20;2.03;;;9.90;99.90;;;;;;5032430;28;20211;-86
2021/11/04 08:24:14;;;;;;;6.50;1.70;;;10.00;99.90;;;;;;5031614;28;20203;-90
2021/11/04 08:26:41;;;;;;;10.57;2.07;;;10.10;99.90;;;;;;5031880;28;20214;-87
2021/11/04 08:29:08;;;;;;;9.83;2.10;;;10.20;99.90;;;;;;5033592;28;20207;-84
2021/11/04 08:31:35;;;;;;;8.37;1.90;;;10.20;99.90;;;;;;5031535;28;20242;-82
2021/11/04 08:34:02;;;;;;;10.80;2.20;;;10.40;99.90;;;;;;5030947;28;20595;-83
2021/11/04 08:36:31;;;;;;;5.83;1.63;;;10.40;99.90;;;;;;5007692;28;20208;-84
2021/11/04 08:38:58;;;;;;;7.93;1.50;;;10.50;99.90;;;;;;5050436;28;20206;-84
2021/11/04 08:41:26;;;;;;;5.67;1.47;;;10.50;99.90;;;;;;5049123;28;20280;-86
2021/11/04 08:43:53;;;;;;;4.83;1.53;;;10.60;99.90;;;;;;5051765;28;20198;-85
2021/11/04 08:46:19;;;;;;;7.37;1.07;;;10.60;99.90;;;;;;5051107;28;20198;-83
2021/11/04 08:48:46;;;;;;;6.40;1.30;;;10.60;99.90;;;;;;5032090;28;20206;-84
2021/11/04 08:51:37;;;;;;;4.73;1.50;;;10.60;99.90;;;;;;5006228;28;20253;-81
2021/11/04 08:54:04;;;;;;;3.97;1.20;;;10.60;99.90;;;;;;5047123;28;20206;-84
2021/11/04 08:56:33;;;;;;;2.23;0.90;;;10.60;99.90;;;;;;5051744;28;20201;-85
2021/11/04 08:59:00;;;;;;;6.33;1.20;;;10.60;99.90;;;;;;5051764;28;20202;-86
2021/11/04 09:01:28;;;;;;;3.93;0.93;;;10.60;99.90;;;;;;5042979;28;20222;-83
2021/11/04 09:03:55;;;;;;;2.87;0.90;;;10.60;99.90;;;;;;5031849;28;20234;-82
2021/11/04 09:06:22;;;;;;;4.27;0.87;;;10.60;99.90;;;;;;5036856;28;20198;-84
2021/11/04 09:08:49;;;;;;;1.83;0.80;;;10.60;99.90;;;;;;5041815;28;20203;-82
2021/11/04 09:11:16;;;;;;;3.30;0.80;;;10.60;99.90;;;;;;5031468;28;20222;-85
2021/11/04 09:13:44;;;;;;;0.83;0.50;;;10.60;99.90;;;;;;5030686;28;20207;-84
2021/11/04 09:16:11;;;;;;;1.33;0.47;;;10.50;99.90;;;;;;5030982;28;20222;-84
2021/11/04 09:18:37;;;;;;;0.90;0.50;;;10.50;99.90;;;;;;5031287;28;20506;-85
2021/11/04 09:21:05;;;;;;;2.23;0.70;;;10.50;99.90;;;;;;5031831;28;20195;-85
2021/11/04 09:23:32;;;;;;;3.10;0.60;;;10.60;99.90;;;;;;5041448;28;20316;-86
2021/11/04 09:25:58;;;;;;;3.00;0.63;;;10.60;99.90;;;;;;5054252;28;20213;-85
2021/11/04 09:28:26;;;;;;;8.87;1.67;;;10.60;99.90;;;;;;5048337;28;20602;-86
2021/11/04 09:30:54;;;;;;;1.47;0.77;;;10.60;99.90;;;;;;5049511;28;20214;-86
2021/11/04 09:33:21;;;;;;;0.60;0.47;;;10.60;99.90;;;;;;5047148;28;20229;-83
2021/11/04 09:35:49;;;;;;;3.23;0.90;;;10.60;99.90;;;;;;5030967;28;20198;-84
2021/11/04 09:38:16;;;;;;;3.40;0.70;;;10.70;99.90;;;;;;5041207;28;20225;-83
2021/11/04 09:40:44;;;;;;;1.33;0.70;;;10.80;99.90;;;;;;5041732;28;20218;-83
2021/11/04 09:43:13;;;;;;;1.53;0.80;;;10.80;99.90;;;;;;5030554;28;20202;-83
2021/11/04 09:45:40;;;;;;;1.63;0.67;;;10.80;99.90;;;;;;5030952;28;20298;-86
2021/11/04 09:48:11;;;;;;;2.73;1.33;;;10.80;99.90;;;;;;5031124;28;20207;-85
2021/11/04 09:50:38;;;;;;;4.80;1.57;;;10.90;99.90;;;;;;5031007;28;20231;-85
2021/11/04 09:53:06;;;;;;;3.67;1.10;;;10.90;99.90;;;;;;5030743;28;20214;-84
2021/11/04 09:55:32;;;;;;;4.43;1.20;;;10.90;99.90;;;;;;5053534;23;20229;-85
2021/11/04 09:58:01;;;;;;;3.43;1.40;;;10.90;99.90;;;;;;5047300;28;20206;-84
2021/11/04 10:00:36;;;;;;;2.67;0.97;;;11.00;99.90;;;;;;5030786;28;20199;-84
2021/11/04 10:03:07;;;;;;;4.17;1.10;;;11.00;99.90;;;;;;5036737;28;20202;-85
2021/11/04 10:05:45;;;;;;;2.30;0.93;;;11.10;99.90;;;;;;5033258;28;20191;-85
2021/11/04 10:08:14;;;;;;;5.13;1.07;;;11.10;99.90;;;;;;5032485;28;20602;-83
2021/11/04 10:10:42;;;;;;;3.80;1.03;;;11.10;99.90;;;;;;5030378;28;20277;-83
2021/11/04 10:13:11;;;;;;;5.97;1.13;;;11.10;99.90;;;;;;5030576;28;20206;-85
2021/11/04 10:15:40;;;;;;;2.00;0.90;;;11.20;99.90;;;;;;5029702;28;20217;-84
2021/11/04 10:18:12;;;;;;;2.50;0.90;;;11.20;99.90;;;;;;5028854;28;20205;-84
2021/11/04 10:20:41;;;;;;;1.53;0.70;;;11.30;99.90;;;;;;5028907;28;20230;-82
2021/11/04 10:23:09;;;;;;;6.43;1.40;;;11.30;99.90;;;;;;5028819;28;20301;-84
2021/11/04 10:25:36;;;;;;;2.03;0.80;;;11.30;99.90;;;;;;5027821;28;20202;-82
2021/11/04 10:28:26;;;;;;;1.60;0.70;;;11.30;99.90;;;;;;5026679;28;20206;-82
2021/11/04 10:30:53;;;;;;;2.63;0.70;;;11.40;99.90;;;;;;5027166;28;20234;-84
2021/11/04 10:33:22;;;;;;;1.30;1.10;;;11.40;99.90;;;;;;5026909;28;20272;-83
2021/11/04 10:35:55;;;;;;;1.37;1.10;;;11.50;99.90;;;;;;5036190;28;20198;-84
2021/11/04 10:38:23;;;;;;;4.30;1.30;;;11.60;99.90;;;;;;5047095;28;20229;-87
2021/11/04 10:40:53;;;;;;;2.17;0.97;;;11.60;99.90;;;;;;5047429;28;20620;-85
2021/11/04 10:43:21;;;;;;;2.97;0.90;;;11.70;99.90;;;;;;5047863;28;20656;-83
2021/11/04 10:46:05;;;;;;;1.20;0.70;;;11.70;99.90;;;;;;5047954;28;20325;-84
2021/11/04 10:48:32;;;;;;;4.00;0.80;;;11.70;99.90;;;;;;5043173;28;20199;-86
2021/11/04 10:51:01;;;;;;;3.33;0.80;;;11.70;99.90;;;;;;5042891;28;20229;-85
2021/11/04 10:53:28;;;;;;;2.87;1.00;;;11.80;99.90;;;;;;5047379;28;20198;-85
2021/11/04 10:55:57;;;;;;;2.73;0.80;;;11.90;99.90;;;;;;5050313;28;20249;-85
2021/11/04 10:58:30;;;;;;;2.23;0.90;;;11.90;99.90;;;;;;5049749;28;20202;-85
2021/11/04 11:00:58;;;;;;;2.30;0.80;;;12.00;99.90;;;;;;5050713;28;20240;-85
2021/11/04 11:03:27;;;;;;;1.37;0.70;;;12.00;99.90;;;;;;5053055;28;20197;-86
2021/11/04 11:05:56;;;;;;;2.13;0.90;;;12.00;99.90;;;;;;5069570;28;20201;-82
2021/11/04 11:08:26;;;;;;;3.33;0.97;;;12.00;99.90;;;;;;5069046;28;20259;-86
2021/11/04 11:10:53;;;;;;;0.87;0.60;;;12.00;99.90;;;;;;5069735;28;20240;-86
2021/11/04 11:13:20;;;;;;;1.13;0.60;;;12.10;99.90;;;;;;5070020;28;20208;-87
2021/11/04 11:15:51;;;;;;;2.77;1.53;;;12.10;99.90;;;;;;5069275;28;20214;-86
2021/11/04 11:18:21;;;;;;;4.00;1.43;;;12.20;99.90;;;;;;5050236;28;20198;-83
2021/11/04 11:20:49;;;;;;;2.20;0.60;;;12.20;99.90;;;;;;5069912;28;20279;-87
2021/11/04 11:23:16;;;;;;;1.77;0.90;;;12.20;99.90;;;;;;5071329;28;20219;-85
2021/11/04 11:25:47;;;;;;;1.63;0.67;;;12.20;99.90;;;;;;5070642;28;20224;-87
2021/11/04 11:28:14;;;;;;;1.23;0.57;;;12.30;99.90;;;;;;5069659;28;20208;-85
2021/11/04 11:30:41;;;;;;;1.23;0.50;;;12.30;99.90;;;;;;5070059;28;20633;-86
2021/11/04 11:33:21;;;;;;;2.00;0.40;;;12.30;99.90;;;;;;5070549;28;20213;-86
2021/11/04 11:36:17;;;;;;;2.27;0.90;;;12.40;99.90;;;;;;5062338;28;20217;-83
2021/11/04 11:39:08;;;;;;;2.33;0.60;;;12.40;99.90;;;;;;5015389;28;20209;-87
2021/11/04 11:42:11;;;;;;;1.60;0.50;;;12.40;99.90;;;;;;5070166;28;20210;-87
2021/11/04 11:44:48;;;;;;;0.93;0.43;;;12.40;99.90;;;;;;5049386;28;20201;-83
2021/11/04 11:47:16;;;;;;;4.57;1.17;;;12.40;99.90;;;;;;5050288;28;20214;-87
2021/11/04 11:49:46;;;;;;;4.10;1.30;;;12.50;99.90;;;;;;5059755;28;21021;-81
2021/11/04 11:52:45;;;;;;;1.20;0.40;;;12.50;99.90;;;;;;5064188;28;20218;-82
2021/11/04 11:55:15;;;;;;;2.80;0.40;;;12.50;99.90;;;;;;5049049;28;20386;-85
2021/11/04 11:58:17;;;;;;;1.60;0.50;;;12.40;99.90;;;;;;5046755;28;20288;-84
2021/11/04 12:00:59;;;;;;;1.70;0.40;;;12.30;99.90;;;;;;5052557;28;20197;-83
2021/11/04 12:03:49;;;;;;;1.30;0.40;;;12.20;99.90;;;;;;5068805;28;20212;-79
2021/11/04 12:06:44;;;;;;;0.50;0.30;;;12.20;99.90;;;;;;5072870;28;20871;-87
2021/11/04 12:09:12;;;;;;;2.37;0.70;;;12.30;99.90;;;;;;5061026;28;20422;-85
2021/11/04 12:11:42;;;;;;;2.00;0.50;;;12.30;99.90;;;;;;5052696;28;20218;-81
2021/11/04 12:14:31;;;;;;;2.00;0.47;;;12.30;99.90;;;;;;5053184;28;20591;-85
2021/11/04 12:17:13;;;;;;;0.73;0.50;;;12.40;99.90;;;;;;5052012;28;20570;-87
2021/11/04 12:19:42;;;;;;;2.20;0.40;;;12.60;99.90;;;;;;5052065;28;20608;-85
2021/11/04 12:22:10;;;;;;;1.00;0.50;;;12.70;99.90;;;;;;5052909;28;20207;-83
2021/11/04 12:24:44;;;;;;;1.03;0.63;;;12.80;99.90;;;;;;5057149;28;20680;-83
2021/11/04 12:27:11;;;;;;;1.03;0.40;;;12.80;99.90;;;;;;5092536;28;20655;-83
2021/11/04 12:29:40;;;;;;;0.60;0.40;;;12.90;99.90;;;;;;5055627;28;20622;-80
2021/11/04 12:32:12;;;;;;;3.10;0.67;;;12.80;99.90;;;;;;5051400;28;20233;-83
2021/11/04 12:34:40;;;;;;;1.83;0.57;;;12.70;99.90;;;;;;5053247;28;20237;-86
2021/11/04 12:37:11;;;;;;;1.50;0.90;;;12.60;99.90;;;;;;5052694;28;20202;-84
2021/11/04 12:39:44;;;;;;;1.97;0.60;;;12.50;99.90;;;;;;5051185;28;20206;-83
2021/11/04 12:42:15;;;;;;;0.60;0.43;;;12.60;99.90;;;;;;5053144;28;20194;-83
2021/11/04 12:44:44;;;;;;;1.70;0.40;;;12.60;99.90;;;;;;5065318;28;20212;-85
2021/11/04 12:47:16;;;;;;;0.97;0.40;;;12.60;99.90;;;;;;5065668;28;20637;-81
2021/11/04 12:49:43;;;;;;;0.50;0.40;;;12.60;99.90;;;;;;5051155;28;20712;-83
2021/11/04 12:52:11;;;;;;;0.70;0.40;;;12.60;99.90;;;;;;5052051;28;20218;-85
2021/11/04 12:54:40;;;;;;;0.47;0.30;;;12.60;99.90;;;;;;5051370;28;20257;-83
2021/11/04 12:57:08;;;;;;;0.70;0.40;;;12.60;99.90;;;;;;5064244;28;20882;-83